sensor_id;sensor_type;location;lat;lon;timestamp;temperature;humidity
20479;DHT22;10398;52.490;13.434;2022-12-26T00:01:42;10.20;99.90
20479;DHT22;10398;52.490;13.434;2022-12-26T00:04:09;10.30;99.90
20479;DHT22;10398;52.490;13.434;2022-12-26T00:06:35;10.30;99.90
20479;DHT22;10398;52.490;13.434;2022-12-26T00:09:03;10.30;99.90
20479;DHT22;10398;52.490;13.434;2022-12-26T00:11:29;10.30;99.90
20479;DHT22;10398;52.490;13.434;2022-12-26T00:13:57;10.40;99.90
20479;DHT22;10398;52.490;13.434;2022-12-26T00:16:24;10.30;99.90
20479;DHT22;10398;52.490;13.434;2022-12-26T00:18:51;10.30;99.90
20479;DHT22;10398;52.490;13.434;2022-12-26T00:21:17;10.30;99.90
20479;DHT22;10398;52.490;13.434;2022-12-26T00:23:44;10.40;99.90
20479;DHT22;10398;52.490;13.434;2022-12-26T00:26:16;10.40;99.90
20479;DHT22;10398;52.490;13.434;2022-12-26T00:28:42;10.50;99.90
20479;DHT22;10398;52.490;13.434;2022-12-26T00:31:17;10.40;99.90
20479;DHT22;10398;52.490;13.434;2022-12-26T00:33:43;10.40;99.90
20479;DHT22;10398;52.490;13.434;2022-12-26T00:36:15;10.50;99.90
20479;DHT22;10398;52.490;13.434;2022-12-26T00:38:42;10.40;99.90
20479;DHT22;10398;52.490;13.434;2022-12-26T00:41:10;10.40;99.90
20479;DHT22;10398;52.490;13.434;2022-12-26T00:43:36;10.40;99.90
20479;DHT22;10398;52.490;13.434;2022-12-26T00:46:02;10.50;99.90
20479;DHT22;10398;52.490;13.434;2022-12-26T00:48:28;10.50;99.90
20479;DHT22;10398;52.490;13.434;2022-12-26T00:50:54;10.50;99.90
20479;DHT22;10398;52.490;13.434;2022-12-26T00:53:20;10.50;99.90
20479;DHT22;10398;52.490;13.434;2022-12-26T00:55:46;10.50;99.90
20479;DHT22;10398;52.490;13.434;2022-12-26T00:58:13;10.50;99.90
20479;DHT22;10398;52.490;13.434;2022-12-26T01:00:38;10.60;99.90
20479;DHT22;10398;52.490;13.434;2022-12-26T01:03:06;10.60;99.90
20479;DHT22;10398;52.490;13.434;2022-12-26T01:05:32;10.50;99.90
20479;DHT22;10398;52.490;13.434;2022-12-26T01:07:58;10.50;99.90
20479;DHT22;10398;52.490;13.434;2022-12-26T01:10:23;10.50;99.90
20479;DHT22;10398;52.490;13.434;2022-12-26T01:12:49;10.60;99.90
20479;DHT22;10398;52.490;13.434;2022-12-26T01:15:15;10.60;99.90
20479;DHT22;10398;52.490;13.434;2022-12-26T01:17:40;10.60;99.90
20479;DHT22;10398;52.490;13.434;2022-12-26T01:20:06;10.60;99.90
20479;DHT22;10398;52.490;13.434;2022-12-26T01:22:32;10.50;99.90
20479;DHT22;10398;52.490;13.434;2022-12-26T01:24:58;10.60;99.90
20479;DHT22;10398;52.490;13.434;2022-12-26T01:27:25;10.60;99.90
20479;DHT22;10398;52.490;13.434;2022-12-26T01:29:51;10.60;99.90
20479;DHT22;10398;52.490;13.434;2022-12-26T01:32:17;10.60;99.90
20479;DHT22;10398;52.490;13.434;2022-12-26T01:34:43;10.60;99.90
20479;DHT22;10398;52.490;13.434;2022-12-26T01:37:13;10.60;99.90
20479;DHT22;10398;52.490;13.434;2022-12-26T01:39:39;10.60;99.90
20479;DHT22;10398;52.490;13.434;2022-12-26T01:42:12;10.70;99.90
20479;DHT22;10398;52.490;13.434;2022-12-26T01:47:58;10.60;99.90
20479;DHT22;10398;52.490;13.434;2022-12-26T01:53:47;10.70;99.90
20479;DHT22;10398;52.490;13.434;2022-12-26T01:56:28;10.70;99.90
20479;DHT22;10398;52.490;13.434;2022-12-26T01:59:00;10.70;99.90
20479;DHT22;10398;52.490;13.434;2022-12-26T02:01:29;10.70;99.90
20479;DHT22;10398;52.490;13.434;2022-12-26T02:03:55;10.70;99.90
20479;DHT22;10398;52.490;13.434;2022-12-26T02:06:41;10.70;99.90
20479;DHT22;10398;52.490;13.434;2022-12-26T02:09:07;10.70;99.90
20479;DHT22;10398;52.490;13.434;2022-12-26T02:11:42;10.70;99.90
20479;DHT22;10398;52.490;13.434;2022-12-26T02:14:09;10.70;99.90
20479;DHT22;10398;52.490;13.434;2022-12-26T02:16:36;10.70;99.90
20479;DHT22;10398;52.490;13.434;2022-12-26T02:19:03;10.70;99.90
20479;DHT22;10398;52.490;13.434;2022-12-26T02:38:10;10.80;99.90
20479;DHT22;10398;52.490;13.434;2022-12-26T02:43:25;10.80;99.90
20479;DHT22;10398;52.490;13.434;2022-12-26T02:46:04;10.80;99.90
20479;DHT22;10398;52.490;13.434;2022-12-26T02:48:56;10.90;99.90
20479;DHT22;10398;52.490;13.434;2022-12-26T02:54:42;10.80;99.90
20479;DHT22;10398;52.490;13.434;2022-12-26T02:57:40;10.90;99.90
20479;DHT22;10398;52.490;13.434;2022-12-26T03:00:27;10.90;99.90
20479;DHT22;10398;52.490;13.434;2022-12-26T03:03:17;10.90;99.90
20479;DHT22;10398;52.490;13.434;2022-12-26T03:06:06;11.00;99.90
20479;DHT22;10398;52.490;13.434;2022-12-26T03:12:02;11.00;99.90
20479;DHT22;10398;52.490;13.434;2022-12-26T03:14:54;11.00;99.90
20479;DHT22;10398;52.490;13.434;2022-12-26T03:17:47;11.00;99.90
20479;DHT22;10398;52.490;13.434;2022-12-26T03:20:21;10.90;99.90
20479;DHT22;10398;52.490;13.434;2022-12-26T03:22:59;11.00;99.90
20479;DHT22;10398;52.490;13.434;2022-12-26T03:25:39;11.00;99.90
20479;DHT22;10398;52.490;13.434;2022-12-26T03:28:26;11.00;99.90
20479;DHT22;10398;52.490;13.434;2022-12-26T03:30:52;11.00;99.90
20479;DHT22;10398;52.490;13.434;2022-12-26T03:33:32;11.00;99.90
20479;DHT22;10398;52.490;13.434;2022-12-26T03:42:12;11.00;99.90
20479;DHT22;10398;52.490;13.434;2022-12-26T03:45:14;11.00;99.90
20479;DHT22;10398;52.490;13.434;2022-12-26T03:48:29;11.00;99.90
20479;DHT22;10398;52.490;13.434;2022-12-26T03:51:31;11.00;99.90
20479;DHT22;10398;52.490;13.434;2022-12-26T03:54:39;11.00;99.90
20479;DHT22;10398;52.490;13.434;2022-12-26T03:57:30;11.00;99.90
20479;DHT22;10398;52.490;13.434;2022-12-26T04:00:15;11.00;99.90
20479;DHT22;10398;52.490;13.434;2022-12-26T04:03:06;11.00;99.90
20479;DHT22;10398;52.490;13.434;2022-12-26T04:05:52;11.10;99.90
20479;DHT22;10398;52.490;13.434;2022-12-26T04:09:14;11.10;99.90
20479;DHT22;10398;52.490;13.434;2022-12-26T04:12:00;11.10;99.90
20479;DHT22;10398;52.490;13.434;2022-12-26T04:14:58;11.10;99.90
20479;DHT22;10398;52.490;13.434;2022-12-26T04:18:10;11.10;99.90
20479;DHT22;10398;52.490;13.434;2022-12-26T04:21:26;11.00;99.90
20479;DHT22;10398;52.490;13.434;2022-12-26T04:24:17;11.10;99.90
20479;DHT22;10398;52.490;13.434;2022-12-26T04:27:02;11.00;99.90
20479;DHT22;10398;52.490;13.434;2022-12-26T04:29:48;11.10;99.90
20479;DHT22;10398;52.490;13.434;2022-12-26T04:32:44;11.10;99.90
20479;DHT22;10398;52.490;13.434;2022-12-26T04:38:29;11.10;99.90
20479;DHT22;10398;52.490;13.434;2022-12-26T04:41:18;11.10;99.90
20479;DHT22;10398;52.490;13.434;2022-12-26T04:44:04;11.10;99.90
20479;DHT22;10398;52.490;13.434;2022-12-26T04:46:39;11.10;99.90
20479;DHT22;10398;52.490;13.434;2022-12-26T04:49:08;11.10;99.90
20479;DHT22;10398;52.490;13.434;2022-12-26T04:51:58;11.10;99.90
20479;DHT22;10398;52.490;13.434;2022-12-26T04:54:25;11.20;99.90
20479;DHT22;10398;52.490;13.434;2022-12-26T04:56:51;11.10;99.90
20479;DHT22;10398;52.490;13.434;2022-12-26T04:59:18;11.10;99.90
20479;DHT22;10398;52.490;13.434;2022-12-26T05:01:43;11.10;99.90
20479;DHT22;10398;52.490;13.434;2022-12-26T05:04:28;11.20;99.90
20479;DHT22;10398;52.490;13.434;2022-12-26T05:07:20;11.10;99.90
20479;DHT22;10398;52.490;13.434;2022-12-26T05:10:07;11.20;99.90
20479;DHT22;10398;52.490;13.434;2022-12-26T05:12:34;11.10;99.90
20479;DHT22;10398;52.490;13.434;2022-12-26T05:15:00;11.10;99.90
20479;DHT22;10398;52.490;13.434;2022-12-26T05:17:26;11.10;99.90
20479;DHT22;10398;52.490;13.434;2022-12-26T05:20:11;11.20;99.90
20479;DHT22;10398;52.490;13.434;2022-12-26T05:22:56;11.20;99.90
20479;DHT22;10398;52.490;13.434;2022-12-26T05:25:42;11.20;99.90
20479;DHT22;10398;52.490;13.434;2022-12-26T05:28:27;11.20;99.90
20479;DHT22;10398;52.490;13.434;2022-12-26T05:31:14;11.20;99.90
20479;DHT22;10398;52.490;13.434;2022-12-26T05:33:40;11.20;99.90
20479;DHT22;10398;52.490;13.434;2022-12-26T05:36:28;11.20;99.90
20479;DHT22;10398;52.490;13.434;2022-12-26T05:38:54;11.20;99.90
20479;DHT22;10398;52.490;13.434;2022-12-26T05:41:22;11.20;99.90
20479;DHT22;10398;52.490;13.434;2022-12-26T05:43:47;11.20;99.90
20479;DHT22;10398;52.490;13.434;2022-12-26T05:46:13;11.20;99.90
20479;DHT22;10398;52.490;13.434;2022-12-26T05:48:39;11.20;99.90
20479;DHT22;10398;52.490;13.434;2022-12-26T05:51:05;11.20;99.90
20479;DHT22;10398;52.490;13.434;2022-12-26T05:53:31;11.20;99.90
20479;DHT22;10398;52.490;13.434;2022-12-26T05:56:08;11.30;99.90
20479;DHT22;10398;52.490;13.434;2022-12-26T05:58:34;11.20;99.90
20479;DHT22;10398;52.490;13.434;2022-12-26T06:01:11;11.20;99.90
20479;DHT22;10398;52.490;13.434;2022-12-26T06:03:37;11.30;99.90
20479;DHT22;10398;52.490;13.434;2022-12-26T06:06:05;11.30;99.90
20479;DHT22;10398;52.490;13.434;2022-12-26T06:08:32;11.30;99.90
20479;DHT22;10398;52.490;13.434;2022-12-26T06:10:57;11.30;99.90
20479;DHT22;10398;52.490;13.434;2022-12-26T06:13:23;11.30;99.90
20479;DHT22;10398;52.490;13.434;2022-12-26T06:15:49;11.30;99.90
20479;DHT22;10398;52.490;13.434;2022-12-26T06:18:14;11.30;99.90
20479;DHT22;10398;52.490;13.434;2022-12-26T06:20:40;11.40;99.90
20479;DHT22;10398;52.490;13.434;2022-12-26T06:23:06;11.30;99.90
20479;DHT22;10398;52.490;13.434;2022-12-26T06:25:31;11.30;99.90
20479;DHT22;10398;52.490;13.434;2022-12-26T06:27:57;11.30;99.90
20479;DHT22;10398;52.490;13.434;2022-12-26T06:30:23;11.30;99.90
20479;DHT22;10398;52.490;13.434;2022-12-26T06:32:48;11.30;99.90
20479;DHT22;10398;52.490;13.434;2022-12-26T06:35:14;11.30;99.90
20479;DHT22;10398;52.490;13.434;2022-12-26T06:37:40;11.30;99.90
20479;DHT22;10398;52.490;13.434;2022-12-26T06:40:06;11.30;99.90
20479;DHT22;10398;52.490;13.434;2022-12-26T06:42:32;11.30;99.90
20479;DHT22;10398;52.490;13.434;2022-12-26T06:44:57;11.30;99.90
20479;DHT22;10398;52.490;13.434;2022-12-26T06:47:23;11.40;99.90
20479;DHT22;10398;52.490;13.434;2022-12-26T06:49:49;11.40;99.90
20479;DHT22;10398;52.490;13.434;2022-12-26T06:52:14;11.40;99.90
20479;DHT22;10398;52.490;13.434;2022-12-26T06:54:40;11.40;99.90
20479;DHT22;10398;52.490;13.434;2022-12-26T06:57:06;11.40;99.90
20479;DHT22;10398;52.490;13.434;2022-12-26T06:59:31;11.40;99.90
20479;DHT22;10398;52.490;13.434;2022-12-26T07:01:57;11.40;99.90
20479;DHT22;10398;52.490;13.434;2022-12-26T07:04:23;11.40;99.90
20479;DHT22;10398;52.490;13.434;2022-12-26T07:06:49;11.30;99.90
20479;DHT22;10398;52.490;13.434;2022-12-26T07:09:17;11.40;99.90
20479;DHT22;10398;52.490;13.434;2022-12-26T07:11:46;11.40;99.90
20479;DHT22;10398;52.490;13.434;2022-12-26T07:14:12;11.30;99.90
20479;DHT22;10398;52.490;13.434;2022-12-26T07:16:40;11.30;99.90
20479;DHT22;10398;52.490;13.434;2022-12-26T07:19:06;11.40;99.90
20479;DHT22;10398;52.490;13.434;2022-12-26T07:21:32;11.30;99.90
20479;DHT22;10398;52.490;13.434;2022-12-26T07:23:58;11.40;99.90
20479;DHT22;10398;52.490;13.434;2022-12-26T07:26:25;11.40;99.90
20479;DHT22;10398;52.490;13.434;2022-12-26T07:28:58;11.40;99.90
20479;DHT22;10398;52.490;13.434;2022-12-26T07:31:24;11.40;99.90
20479;DHT22;10398;52.490;13.434;2022-12-26T07:33:53;11.40;99.90
20479;DHT22;10398;52.490;13.434;2022-12-26T07:36:19;11.40;99.90
20479;DHT22;10398;52.490;13.434;2022-12-26T07:38:46;11.40;99.90
20479;DHT22;10398;52.490;13.434;2022-12-26T07:41:14;11.40;99.90
20479;DHT22;10398;52.490;13.434;2022-12-26T07:43:58;11.50;99.90
20479;DHT22;10398;52.490;13.434;2022-12-26T07:46:24;11.50;99.90
20479;DHT22;10398;52.490;13.434;2022-12-26T07:48:50;11.50;99.90
20479;DHT22;10398;52.490;13.434;2022-12-26T07:51:16;11.50;99.90
20479;DHT22;10398;52.490;13.434;2022-12-26T07:53:42;11.50;99.90
20479;DHT22;10398;52.490;13.434;2022-12-26T07:56:07;11.50;99.90
20479;DHT22;10398;52.490;13.434;2022-12-26T07:58:33;11.40;99.90
20479;DHT22;10398;52.490;13.434;2022-12-26T08:01:03;11.40;99.90
20479;DHT22;10398;52.490;13.434;2022-12-26T08:03:29;11.40;99.90
20479;DHT22;10398;52.490;13.434;2022-12-26T08:05:55;11.40;99.90
20479;DHT22;10398;52.490;13.434;2022-12-26T08:08:21;11.40;99.90
20479;DHT22;10398;52.490;13.434;2022-12-26T08:10:46;11.40;99.90
20479;DHT22;10398;52.490;13.434;2022-12-26T08:13:12;11.40;99.90
20479;DHT22;10398;52.490;13.434;2022-12-26T08:15:39;11.40;99.90
20479;DHT22;10398;52.490;13.434;2022-12-26T08:18:05;11.40;99.90
20479;DHT22;10398;52.490;13.434;2022-12-26T08:20:31;11.30;99.90
20479;DHT22;10398;52.490;13.434;2022-12-26T08:22:57;11.40;99.90
20479;DHT22;10398;52.490;13.434;2022-12-26T08:25:23;11.40;99.90
20479;DHT22;10398;52.490;13.434;2022-12-26T08:27:48;11.40;99.90
20479;DHT22;10398;52.490;13.434;2022-12-26T08:30:14;11.40;99.90
20479;DHT22;10398;52.490;13.434;2022-12-26T08:32:40;11.40;99.90
20479;DHT22;10398;52.490;13.434;2022-12-26T08:35:06;11.40;99.90
20479;DHT22;10398;52.490;13.434;2022-12-26T08:37:32;11.40;99.90
20479;DHT22;10398;52.490;13.434;2022-12-26T08:39:57;11.40;99.90
20479;DHT22;10398;52.490;13.434;2022-12-26T08:42:23;11.40;99.90
20479;DHT22;10398;52.490;13.434;2022-12-26T08:44:49;11.50;99.90
20479;DHT22;10398;52.490;13.434;2022-12-26T08:47:15;11.50;99.90
20479;DHT22;10398;52.490;13.434;2022-12-26T08:49:40;11.50;99.90
20479;DHT22;10398;52.490;13.434;2022-12-26T08:52:06;11.50;99.90
20479;DHT22;10398;52.490;13.434;2022-12-26T08:54:32;11.40;99.90
20479;DHT22;10398;52.490;13.434;2022-12-26T08:56:58;11.40;99.90
20479;DHT22;10398;52.490;13.434;2022-12-26T08:59:23;11.40;99.90
20479;DHT22;10398;52.490;13.434;2022-12-26T09:01:49;11.40;99.90
20479;DHT22;10398;52.490;13.434;2022-12-26T09:04:15;11.50;99.90
20479;DHT22;10398;52.490;13.434;2022-12-26T09:06:41;11.50;99.90
20479;DHT22;10398;52.490;13.434;2022-12-26T09:09:08;11.50;99.90
20479;DHT22;10398;52.490;13.434;2022-12-26T09:11:36;11.40;99.90
20479;DHT22;10398;52.490;13.434;2022-12-26T09:14:03;11.50;99.90
20479;DHT22;10398;52.490;13.434;2022-12-26T09:16:32;11.40;99.90
20479;DHT22;10398;52.490;13.434;2022-12-26T09:19:01;11.40;99.90
20479;DHT22;10398;52.490;13.434;2022-12-26T09:21:28;11.50;99.90
20479;DHT22;10398;52.490;13.434;2022-12-26T09:23:58;11.50;99.90
20479;DHT22;10398;52.490;13.434;2022-12-26T09:26:24;11.50;99.90
20479;DHT22;10398;52.490;13.434;2022-12-26T09:28:50;11.50;99.90
20479;DHT22;10398;52.490;13.434;2022-12-26T09:31:19;11.50;99.90
20479;DHT22;10398;52.490;13.434;2022-12-26T09:33:45;11.50;99.90
20479;DHT22;10398;52.490;13.434;2022-12-26T09:36:21;11.50;99.90
20479;DHT22;10398;52.490;13.434;2022-12-26T09:38:48;11.50;99.90
20479;DHT22;10398;52.490;13.434;2022-12-26T09:47:11;11.50;99.90
20479;DHT22;10398;52.490;13.434;2022-12-26T09:49:56;11.50;99.90
20479;DHT22;10398;52.490;13.434;2022-12-26T09:57:51;11.60;99.90
20479;DHT22;10398;52.490;13.434;2022-12-26T10:00:21;11.70;99.90
20479;DHT22;10398;52.490;13.434;2022-12-26T10:02:51;11.70;99.90
20479;DHT22;10398;52.490;13.434;2022-12-26T10:05:20;11.70;99.90
20479;DHT22;10398;52.490;13.434;2022-12-26T10:07:56;11.70;99.90
20479;DHT22;10398;52.490;13.434;2022-12-26T10:10:34;11.70;99.90
20479;DHT22;10398;52.490;13.434;2022-12-26T10:13:23;11.70;99.90
20479;DHT22;10398;52.490;13.434;2022-12-26T10:16:03;11.70;99.90
20479;DHT22;10398;52.490;13.434;2022-12-26T10:18:42;11.70;99.90
20479;DHT22;10398;52.490;13.434;2022-12-26T10:24:11;11.70;99.90
20479;DHT22;10398;52.490;13.434;2022-12-26T10:26:47;11.70;99.90
20479;DHT22;10398;52.490;13.434;2022-12-26T10:29:38;11.80;99.90
20479;DHT22;10398;52.490;13.434;2022-12-26T10:32:24;11.70;99.90
20479;DHT22;10398;52.490;13.434;2022-12-26T10:34:51;11.70;99.90
20479;DHT22;10398;52.490;13.434;2022-12-26T10:37:32;11.70;99.90
20479;DHT22;10398;52.490;13.434;2022-12-26T10:43:03;11.70;99.90
20479;DHT22;10398;52.490;13.434;2022-12-26T10:45:49;11.80;99.90
20479;DHT22;10398;52.490;13.434;2022-12-26T10:48:19;11.70;99.90
20479;DHT22;10398;52.490;13.434;2022-12-26T10:50:47;11.70;99.90
20479;DHT22;10398;52.490;13.434;2022-12-26T10:53:14;11.70;99.90
20479;DHT22;10398;52.490;13.434;2022-12-26T10:55:40;11.80;99.90
20479;DHT22;10398;52.490;13.434;2022-12-26T10:58:21;11.80;99.90
20479;DHT22;10398;52.490;13.434;2022-12-26T11:00:48;11.70;99.90
20479;DHT22;10398;52.490;13.434;2022-12-26T11:03:16;11.70;99.90
20479;DHT22;10398;52.490;13.434;2022-12-26T11:05:51;11.70;99.90
20479;DHT22;10398;52.490;13.434;2022-12-26T11:08:39;11.70;99.90
20479;DHT22;10398;52.490;13.434;2022-12-26T11:11:18;11.80;99.90
20479;DHT22;10398;52.490;13.434;2022-12-26T11:13:59;11.90;99.90
20479;DHT22;10398;52.490;13.434;2022-12-26T11:16:37;11.90;99.90
20479;DHT22;10398;52.490;13.434;2022-12-26T11:19:04;12.00;99.90
20479;DHT22;10398;52.490;13.434;2022-12-26T11:21:33;11.90;99.90
20479;DHT22;10398;52.490;13.434;2022-12-26T11:26:33;11.80;99.90
20479;DHT22;10398;52.490;13.434;2022-12-26T11:29:20;11.80;99.90
20479;DHT22;10398;52.490;13.434;2022-12-26T11:31:59;11.80;99.90
20479;DHT22;10398;52.490;13.434;2022-12-26T11:34:42;11.80;99.90
20479;DHT22;10398;52.490;13.434;2022-12-26T11:37:41;11.80;99.90
20479;DHT22;10398;52.490;13.434;2022-12-26T11:40:24;11.70;99.90
20479;DHT22;10398;52.490;13.434;2022-12-26T11:42:55;11.70;99.90
20479;DHT22;10398;52.490;13.434;2022-12-26T11:45:29;11.70;99.90
20479;DHT22;10398;52.490;13.434;2022-12-26T11:47:57;11.70;99.90
20479;DHT22;10398;52.490;13.434;2022-12-26T11:50:26;11.60;99.90
20479;DHT22;10398;52.490;13.434;2022-12-26T11:58:12;11.50;99.90
20479;DHT22;10398;52.490;13.434;2022-12-26T12:05:52;11.60;99.90
20479;DHT22;10398;52.490;13.434;2022-12-26T12:11:26;11.60;99.90
20479;DHT22;10398;52.490;13.434;2022-12-26T12:19:29;11.60;99.90
20479;DHT22;10398;52.490;13.434;2022-12-26T12:27:40;11.60;99.90
20479;DHT22;10398;52.490;13.434;2022-12-26T12:30:23;11.60;99.90
20479;DHT22;10398;52.490;13.434;2022-12-26T12:41:42;11.70;99.90
20479;DHT22;10398;52.490;13.434;2022-12-26T12:52:36;11.60;99.90
20479;DHT22;10398;52.490;13.434;2022-12-26T13:00:21;11.70;99.90
20479;DHT22;10398;52.490;13.434;2022-12-26T13:05:31;11.80;99.90
20479;DHT22;10398;52.490;13.434;2022-12-26T13:08:06;11.70;99.90
20479;DHT22;10398;52.490;13.434;2022-12-26T13:10:44;11.70;99.90
20479;DHT22;10398;52.490;13.434;2022-12-26T13:13:28;11.70;99.90
20479;DHT22;10398;52.490;13.434;2022-12-26T13:16:09;11.70;99.90
20479;DHT22;10398;52.490;13.434;2022-12-26T13:18:40;11.70;99.90
20479;DHT22;10398;52.490;13.434;2022-12-26T13:21:11;11.70;99.90
20479;DHT22;10398;52.490;13.434;2022-12-26T13:23:46;11.70;99.90
20479;DHT22;10398;52.490;13.434;2022-12-26T13:26:36;11.80;99.90
20479;DHT22;10398;52.490;13.434;2022-12-26T13:29:13;11.70;99.90
20479;DHT22;10398;52.490;13.434;2022-12-26T13:31:40;11.70;99.90
20479;DHT22;10398;52.490;13.434;2022-12-26T13:34:14;11.60;99.90
20479;DHT22;10398;52.490;13.434;2022-12-26T13:36:47;11.70;99.90
20479;DHT22;10398;52.490;13.434;2022-12-26T13:42:14;11.60;99.90
20479;DHT22;10398;52.490;13.434;2022-12-26T13:50:57;11.60;99.90
20479;DHT22;10398;52.490;13.434;2022-12-26T13:53:31;11.60;99.90
20479;DHT22;10398;52.490;13.434;2022-12-26T14:06:40;11.50;99.90
20479;DHT22;10398;52.490;13.434;2022-12-26T14:25:26;11.40;99.90
20479;DHT22;10398;52.490;13.434;2022-12-26T14:28:19;11.40;99.90
20479;DHT22;10398;52.490;13.434;2022-12-26T14:31:19;11.30;99.90
20479;DHT22;10398;52.490;13.434;2022-12-26T14:36:35;11.30;99.90
20479;DHT22;10398;52.490;13.434;2022-12-26T14:45:00;11.30;99.90
20479;DHT22;10398;52.490;13.434;2022-12-26T14:47:44;11.20;99.90
20479;DHT22;10398;52.490;13.434;2022-12-26T14:50:39;11.20;99.90
20479;DHT22;10398;52.490;13.434;2022-12-26T14:58:50;11.20;99.90
20479;DHT22;10398;52.490;13.434;2022-12-26T15:12:19;11.20;99.90
20479;DHT22;10398;52.490;13.434;2022-12-26T15:28:43;11.20;99.90
20479;DHT22;10398;52.490;13.434;2022-12-26T15:39:41;11.00;99.90
20479;DHT22;10398;52.490;13.434;2022-12-26T15:47:48;11.10;99.90
20479;DHT22;10398;52.490;13.434;2022-12-26T15:50:36;11.00;99.90
20479;DHT22;10398;52.490;13.434;2022-12-26T16:01:37;10.90;99.90
20479;DHT22;10398;52.490;13.434;2022-12-26T16:04:15;10.80;99.90
20479;DHT22;10398;52.490;13.434;2022-12-26T16:09:43;10.80;99.90
20479;DHT22;10398;52.490;13.434;2022-12-26T16:14:45;10.70;99.90
20479;DHT22;10398;52.490;13.434;2022-12-26T16:17:18;10.70;99.90
20479;DHT22;10398;52.490;13.434;2022-12-26T16:19:46;10.70;99.90
20479;DHT22;10398;52.490;13.434;2022-12-26T16:22:51;10.60;99.90
20479;DHT22;10398;52.490;13.434;2022-12-26T16:25:20;10.60;99.90
20479;DHT22;10398;52.490;13.434;2022-12-26T16:27:49;10.60;99.90
20479;DHT22;10398;52.490;13.434;2022-12-26T16:30:20;10.60;99.90
20479;DHT22;10398;52.490;13.434;2022-12-26T16:32:46;10.50;99.90
20479;DHT22;10398;52.490;13.434;2022-12-26T16:35:21;10.60;99.90
20479;DHT22;10398;52.490;13.434;2022-12-26T16:37:50;10.60;99.90
20479;DHT22;10398;52.490;13.434;2022-12-26T16:40:26;10.60;99.90
20479;DHT22;10398;52.490;13.434;2022-12-26T16:43:04;10.60;99.90
20479;DHT22;10398;52.490;13.434;2022-12-26T16:45:33;10.60;99.90
20479;DHT22;10398;52.490;13.434;2022-12-26T16:48:03;10.60;99.90
20479;DHT22;10398;52.490;13.434;2022-12-26T16:50:30;10.60;99.90
20479;DHT22;10398;52.490;13.434;2022-12-26T16:53:18;10.60;99.90
20479;DHT22;10398;52.490;13.434;2022-12-26T16:58:16;10.60;99.90
20479;DHT22;10398;52.490;13.434;2022-12-26T17:01:03;10.60;99.90
20479;DHT22;10398;52.490;13.434;2022-12-26T17:03:46;10.50;99.90
20479;DHT22;10398;52.490;13.434;2022-12-26T17:06:39;10.50;99.90
20479;DHT22;10398;52.490;13.434;2022-12-26T17:09:10;10.50;99.90
20479;DHT22;10398;52.490;13.434;2022-12-26T17:12:17;10.60;99.90
20479;DHT22;10398;52.490;13.434;2022-12-26T17:14:37;10.70;99.90
20479;DHT22;10398;52.490;13.434;2022-12-26T17:19:51;10.70;99.90
20479;DHT22;10398;52.490;13.434;2022-12-26T17:22:32;10.70;99.90
20479;DHT22;10398;52.490;13.434;2022-12-26T17:30:44;10.80;99.90
20479;DHT22;10398;52.490;13.434;2022-12-26T17:33:19;10.80;99.90
20479;DHT22;10398;52.490;13.434;2022-12-26T17:35:51;10.80;99.90
20479;DHT22;10398;52.490;13.434;2022-12-26T17:38:26;10.80;99.90
20479;DHT22;10398;52.490;13.434;2022-12-26T17:40:54;10.80;99.90
20479;DHT22;10398;52.490;13.434;2022-12-26T17:43:23;10.80;99.90
20479;DHT22;10398;52.490;13.434;2022-12-26T17:45:49;10.80;99.90
20479;DHT22;10398;52.490;13.434;2022-12-26T17:48:15;10.80;99.90
20479;DHT22;10398;52.490;13.434;2022-12-26T17:50:43;10.80;99.90
20479;DHT22;10398;52.490;13.434;2022-12-26T17:53:23;10.80;99.90
20479;DHT22;10398;52.490;13.434;2022-12-26T17:55:51;10.70;99.90
20479;DHT22;10398;52.490;13.434;2022-12-26T17:58:17;10.70;99.90
20479;DHT22;10398;52.490;13.434;2022-12-26T18:00:43;10.70;99.90
20479;DHT22;10398;52.490;13.434;2022-12-26T18:03:09;10.80;99.90
20479;DHT22;10398;52.490;13.434;2022-12-26T18:05:36;11.00;99.90
20479;DHT22;10398;52.490;13.434;2022-12-26T18:08:02;10.80;99.90
20479;DHT22;10398;52.490;13.434;2022-12-26T18:10:31;10.90;99.90
20479;DHT22;10398;52.490;13.434;2022-12-26T18:12:57;10.90;99.90
20479;DHT22;10398;52.490;13.434;2022-12-26T18:15:28;10.90;99.90
20479;DHT22;10398;52.490;13.434;2022-12-26T18:17:54;10.80;99.90
20479;DHT22;10398;52.490;13.434;2022-12-26T18:20:23;10.70;99.90
20479;DHT22;10398;52.490;13.434;2022-12-26T18:22:49;10.60;99.90
20479;DHT22;10398;52.490;13.434;2022-12-26T18:25:17;10.60;99.90
20479;DHT22;10398;52.490;13.434;2022-12-26T18:27:43;10.60;99.90
20479;DHT22;10398;52.490;13.434;2022-12-26T18:30:29;10.60;99.90
20479;DHT22;10398;52.490;13.434;2022-12-26T18:32:55;10.60;99.90
20479;DHT22;10398;52.490;13.434;2022-12-26T18:35:21;10.60;99.90
20479;DHT22;10398;52.490;13.434;2022-12-26T18:37:51;10.50;99.90
20479;DHT22;10398;52.490;13.434;2022-12-26T18:40:39;10.50;99.90
20479;DHT22;10398;52.490;13.434;2022-12-26T18:43:06;10.50;99.90
20479;DHT22;10398;52.490;13.434;2022-12-26T18:45:35;10.50;99.90
20479;DHT22;10398;52.490;13.434;2022-12-26T18:48:01;10.40;99.90
20479;DHT22;10398;52.490;13.434;2022-12-26T18:50:29;10.40;99.90
20479;DHT22;10398;52.490;13.434;2022-12-26T18:52:55;10.40;99.90
20479;DHT22;10398;52.490;13.434;2022-12-26T18:55:22;10.40;99.90
20479;DHT22;10398;52.490;13.434;2022-12-26T18:57:50;10.40;99.90
20479;DHT22;10398;52.490;13.434;2022-12-26T19:00:17;10.40;99.90
20479;DHT22;10398;52.490;13.434;2022-12-26T19:02:44;10.30;99.90
20479;DHT22;10398;52.490;13.434;2022-12-26T19:05:22;10.30;99.90
20479;DHT22;10398;52.490;13.434;2022-12-26T19:07:48;10.30;99.90
20479;DHT22;10398;52.490;13.434;2022-12-26T19:10:21;10.30;99.90
20479;DHT22;10398;52.490;13.434;2022-12-26T19:12:47;10.30;99.90
20479;DHT22;10398;52.490;13.434;2022-12-26T19:15:13;10.20;99.90
20479;DHT22;10398;52.490;13.434;2022-12-26T19:17:40;10.30;99.90
20479;DHT22;10398;52.490;13.434;2022-12-26T19:20:14;10.30;99.90
20479;DHT22;10398;52.490;13.434;2022-12-26T19:22:41;10.30;99.90
20479;DHT22;10398;52.490;13.434;2022-12-26T19:25:07;10.30;99.90
20479;DHT22;10398;52.490;13.434;2022-12-26T19:27:32;10.20;99.90
20479;DHT22;10398;52.490;13.434;2022-12-26T19:29:58;10.20;99.90
20479;DHT22;10398;52.490;13.434;2022-12-26T19:32:24;10.10;99.90
20479;DHT22;10398;52.490;13.434;2022-12-26T19:34:49;10.10;99.90